Time,TemperatureF,DewpointF,PressureIn,WindDirection,WindDirectionDegrees,WindSpeedMPH,WindSpeedGustMPH,Humidity,HourlyPrecipIn,Conditions,Clouds,dailyrainin,SoftwareType,DateUTC
2013-05-23 00:26:00,63.5,61.0,29.84,SSE,165,1.0,2.0,93,0.00,,,0.00,weatherlink.com 1.10,2013-05-23 05:26:00,
2013-05-23 00:43:00,64.0,62.0,29.84,SSW,205,1.0,3.0,92,0.00,,,0.00,weatherlink.com 1.10,2013-05-23 05:43:00,
2013-05-23 00:59:00,64.2,62.0,29.84,SSW,205,0.0,2.0,91,0.00,,,0.00,weatherlink.com 1.10,2013-05-23 05:59:00,
2013-05-23 01:15:00,64.2,62.0,29.84,SSW,207,2.0,3.0,91,0.00,,,0.00,weatherlink.com 1.10,2013-05-23 06:15:00,
2013-05-23 01:31:00,64.1,61.0,29.85,SW,219,0.0,1.0,90,0.00,,,0.00,weatherlink.com 1.10,2013-05-23 06:31:00,
2013-05-23 01:47:00,64.1,61.0,29.85,SSW,207,0.0,2.0,90,0.00,,,0.00,weatherlink.com 1.10,2013-05-23 06:47:00,
2013-05-23 02:04:00,62.9,61.0,29.85,SW,215,0.0,0.0,92,0.00,,,0.00,weatherlink.com 1.10,2013-05-23 07:04:00,
2013-05-23 02:20:00,62.3,61.0,29.86,NW,326,0.0,2.0,94,0.00,,,0.00,weatherlink.com 1.10,2013-05-23 07:20:00,
2013-05-23 02:36:00,63.3,61.0,29.86,SSE,167,0.0,1.0,93,0.00,,,0.00,weatherlink.com 1.10,2013-05-23 07:36:00,
2013-05-23 03:10:00,62.8,60.0,29.87,West,265,0.0,0.0,92,0.00,,,0.00,weatherlink.com 1.10,2013-05-23 08:10:00,
2013-05-23 03:26:00,62.0,60.0,29.87,West,265,0.0,0.0,94,0.00,,,0.00,weatherlink.com 1.10,2013-05-23 08:26:00,
2013-05-23 03:42:00,61.3,60.0,29.88,West,265,0.0,0.0,95,0.00,,,0.00,weatherlink.com 1.10,2013-05-23 08:42:00,
2013-05-23 03:58:00,60.9,60.0,29.88,West,265,0.0,0.0,96,0.00,,,0.00,weatherlink.com 1.10,2013-05-23 08:58:00,
2013-05-23 04:14:00,60.3,59.0,29.89,West,265,0.0,0.0,96,0.00,,,0.00,weatherlink.com 1.10,2013-05-23 09:14:00,
2013-05-23 04:31:00,60.2,59.0,29.89,West,265,0.0,0.0,96,0.00,,,0.00,weatherlink.com 1.10,2013-05-23 09:31:00,
2013-05-23 04:47:00,59.9,59.0,29.89,West,265,0.0,0.0,97,0.00,,,0.00,weatherlink.com 1.10,2013-05-23 09:47:00,
2013-05-23 05:04:00,59.5,59.0,29.89,West,266,0.0,0.0,97,0.00,,,0.00,weatherlink.com 1.10,2013-05-23 10:04:00,
2013-05-23 05:20:00,58.8,58.0,29.90,West,265,0.0,0.0,97,0.00,,,0.00,weatherlink.com 1.10,2013-05-23 10:20:00,
2013-05-23 05:36:00,58.5,58.0,29.91,West,265,0.0,0.0,97,0.00,,,0.00,weatherlink.com 1.10,2013-05-23 10:36:00,
2013-05-23 05:52:00,58.7,58.0,29.91,West,265,0.0,0.0,98,0.00,,,0.00,weatherlink.com 1.10,2013-05-23 10:52:00,
2013-05-23 06:08:00,59.0,58.0,29.92,West,266,0.0,0.0,98,0.00,,,0.00,weatherlink.com 1.10,2013-05-23 11:08:00,
2013-05-23 06:25:00,59.3,59.0,29.93,West,265,0.0,0.0,98,0.00,,,0.00,weatherlink.com 1.10,2013-05-23 11:25:00,
2013-05-23 06:41:00,60.1,59.0,29.94,WSW,248,0.0,2.0,97,0.00,,,0.00,weatherlink.com 1.10,2013-05-23 11:41:00,
2013-05-23 06:58:00,61.1,59.0,29.94,WNW,286,0.0,3.0,94,0.00,,,0.00,weatherlink.com 1.10,2013-05-23 11:58:00,
2013-05-23 07:14:00,62.4,59.0,29.94,NE,49,1.0,4.0,90,0.00,,,0.00,weatherlink.com 1.10,2013-05-23 12:14:00,
2013-05-23 07:30:00,62.7,59.0,29.94,NE,40,2.0,2.0,87,0.00,,,0.00,weatherlink.com 1.10,2013-05-23 12:30:00,
2013-05-23 07:46:00,63.8,59.0,29.95,NNW,345,2.0,5.0,85,0.00,,,0.00,weatherlink.com 1.10,2013-05-23 12:46:00,
2013-05-23 08:02:00,64.4,59.0,29.95,NNW,335,2.0,3.0,82,0.00,,,0.00,weatherlink.com 1.10,2013-05-23 13:02:00,
2013-05-23 08:18:00,65.3,59.0,29.96,West,281,1.0,4.0,79,0.00,,,0.00,weatherlink.com 1.10,2013-05-23 13:18:00,
2013-05-23 08:34:00,66.2,58.0,29.96,WNW,298,0.0,5.0,76,0.00,,,0.00,weatherlink.com 1.10,2013-05-23 13:34:00,
2013-05-23 08:50:00,67.5,59.0,29.96,South,180,0.0,3.0,75,0.00,,,0.00,weatherlink.com 1.10,2013-05-23 13:50:00,
2013-05-23 09:06:00,68.3,59.0,29.96,West,272,1.0,6.0,71,0.00,,,0.00,weatherlink.com 1.10,2013-05-23 14:06:00,
2013-05-23 09:22:00,69.2,59.0,29.96,ENE,75,1.0,5.0,69,0.00,,,0.00,weatherlink.com 1.10,2013-05-23 14:22:00,
2013-05-23 09:39:00,70.3,57.0,29.95,ENE,66,1.0,6.0,63,0.00,,,0.00,weatherlink.com 1.10,2013-05-23 14:39:00,
2013-05-23 09:56:00,71.0,59.0,29.96,North,5,1.0,5.0,67,0.00,,,0.00,weatherlink.com 1.10,2013-05-23 14:56:00,
2013-05-23 10:12:00,71.2,59.0,29.96,SW,233,2.0,5.0,65,0.00,,,0.00,weatherlink.com 1.10,2013-05-23 15:12:00,
2013-05-23 10:28:00,71.2,56.0,29.96,NE,54,2.0,5.0,59,0.00,,,0.00,weatherlink.com 1.10,2013-05-23 15:28:00,
2013-05-23 10:45:00,71.3,59.0,29.95,WSW,253,1.0,4.0,65,0.00,,,0.00,weatherlink.com 1.10,2013-05-23 15:45:00,
2013-05-23 11:01:00,72.0,59.0,29.95,North,5,1.0,7.0,64,0.00,,,0.00,weatherlink.com 1.10,2013-05-23 16:01:00,
2013-05-23 11:19:00,71.4,59.0,29.96,West,275,2.0,6.0,64,0.00,,,0.00,weatherlink.com 1.10,2013-05-23 16:19:00,
2013-05-23 11:35:00,72.2,61.0,29.96,NNE,30,0.0,5.0,67,0.00,,,0.00,weatherlink.com 1.10,2013-05-23 16:35:00,
2013-05-23 11:51:00,72.2,60.0,29.96,NW,318,5.0,8.0,66,0.00,,,0.00,weatherlink.com 1.10,2013-05-23 16:51:00,
2013-05-23 12:07:00,72.3,59.0,29.96,South,187,2.0,5.0,62,0.00,,,0.00,weatherlink.com 1.10,2013-05-23 17:07:00,
2013-05-23 12:23:00,70.5,59.0,29.97,West,273,3.0,7.0,68,0.00,,,0.00,weatherlink.com 1.10,2013-05-23 17:23:00,
2013-05-23 12:40:00,71.0,61.0,29.98,NNE,12,1.0,5.0,70,0.00,,,0.00,weatherlink.com 1.10,2013-05-23 17:40:00,
2013-05-23 12:56:00,73.0,61.0,29.97,NNW,344,6.0,7.0,66,0.00,,,0.00,weatherlink.com 1.10,2013-05-23 17:56:00,
2013-05-23 13:12:00,70.4,59.0,29.98,NNW,340,1.0,8.0,67,0.00,,,0.00,weatherlink.com 1.10,2013-05-23 18:12:00,
2013-05-23 13:28:00,69.8,59.0,29.98,NE,38,4.0,10.0,68,0.00,,,0.00,weatherlink.com 1.10,2013-05-23 18:28:00,
2013-05-23 13:44:00,71.3,58.0,29.98,NE,49,7.0,15.0,63,0.00,,,0.00,weatherlink.com 1.10,2013-05-23 18:44:00,
2013-05-23 14:00:00,72.0,59.0,29.98,NNE,30,9.0,15.0,63,0.00,,,0.00,weatherlink.com 1.10,2013-05-23 19:00:00,
2013-05-23 14:16:00,71.1,57.0,29.98,NW,311,4.0,14.0,62,0.00,,,0.00,weatherlink.com 1.10,2013-05-23 19:16:00,
2013-05-23 14:32:00,70.9,57.0,29.99,NNE,15,6.0,13.0,61,0.00,,,0.00,weatherlink.com 1.10,2013-05-23 19:32:00,
2013-05-23 14:48:00,70.5,58.0,29.99,NNW,331,1.0,14.0,64,0.00,,,0.00,weatherlink.com 1.10,2013-05-23 19:48:00,
2013-05-23 15:04:00,70.3,58.0,29.99,East,98,5.0,11.0,64,0.00,,,0.00,weatherlink.com 1.10,2013-05-23 20:04:00,
2013-05-23 15:20:00,69.2,57.0,29.99,NNE,29,3.0,9.0,65,0.00,,,0.00,weatherlink.com 1.10,2013-05-23 20:20:00,
2013-05-23 15:37:00,70.2,58.0,29.99,NNE,29,3.0,8.0,65,0.00,,,0.00,weatherlink.com 1.10,2013-05-23 20:37:00,
2013-05-23 15:53:00,70.9,57.0,29.99,NNE,15,4.0,8.0,62,0.00,,,0.00,weatherlink.com 1.10,2013-05-23 20:53:00,
2013-05-23 16:09:00,69.8,57.0,29.99,NE,41,1.0,9.0,64,0.00,,,0.00,weatherlink.com 1.10,2013-05-23 21:09:00,
2013-05-23 16:25:00,71.3,60.0,30.00,NNE,27,2.0,8.0,68,0.00,,,0.00,weatherlink.com 1.10,2013-05-23 21:25:00,
2013-05-23 16:41:00,70.3,58.0,30.00,NE,35,1.0,11.0,65,0.00,,,0.00,weatherlink.com 1.10,2013-05-23 21:41:00,
2013-05-23 16:57:00,71.0,57.0,30.00,NNE,12,3.0,8.0,62,0.00,,,0.00,weatherlink.com 1.10,2013-05-23 21:57:00,
2013-05-23 17:13:00,70.7,58.0,30.00,WNW,283,2.0,7.0,65,0.00,,,0.00,weatherlink.com 1.10,2013-05-23 22:13:00,
2013-05-23 17:29:00,69.7,57.0,30.00,NW,313,3.0,7.0,64,0.00,,,0.00,weatherlink.com 1.10,2013-05-23 22:29:00,
2013-05-23 17:46:00,69.3,58.0,30.01,NE,38,3.0,8.0,67,0.00,,,0.00,weatherlink.com 1.10,2013-05-23 22:46:00,
2013-05-23 18:02:00,69.7,58.0,30.02,NW,315,4.0,9.0,66,0.00,,,0.00,weatherlink.com 1.10,2013-05-23 23:02:00,
2013-05-23 18:18:00,68.7,57.0,30.02,NNE,13,1.0,10.0,66,0.00,,,0.00,weatherlink.com 1.10,2013-05-23 23:18:00,
2013-05-23 18:34:00,68.4,57.0,30.02,WNW,296,2.0,10.0,67,0.00,,,0.00,weatherlink.com 1.10,2013-05-23 23:34:00,
2013-05-23 18:51:00,67.8,56.0,30.02,NE,38,7.0,11.0,67,0.00,,,0.00,weatherlink.com 1.10,2013-05-23 23:51:00,
2013-05-23 19:07:00,66.9,57.0,30.02,West,277,2.0,8.0,70,0.00,,,0.00,weatherlink.com 1.10,2013-05-24 00:07:00,
2013-05-23 19:23:00,66.6,57.0,30.03,NW,309,2.0,7.0,71,0.00,,,0.00,weatherlink.com 1.10,2013-05-24 00:23:00,
2013-05-23 19:39:00,66.1,57.0,30.04,NW,316,3.0,4.0,73,0.00,,,0.00,weatherlink.com 1.10,2013-05-24 00:39:00,
2013-05-23 19:55:00,65.9,57.0,30.04,NNW,328,5.0,9.0,74,0.00,,,0.00,weatherlink.com 1.10,2013-05-24 00:55:00,
2013-05-23 20:12:00,65.4,57.0,30.04,WNW,286,2.0,6.0,75,0.00,,,0.00,weatherlink.com 1.10,2013-05-24 01:12:00,
2013-05-23 20:28:00,65.1,57.0,30.04,WNW,286,2.0,6.0,76,0.00,,,0.00,weatherlink.com 1.10,2013-05-24 01:28:00,
2013-05-23 20:45:00,65.0,58.0,30.04,NW,311,4.0,4.0,77,0.00,,,0.00,weatherlink.com 1.10,2013-05-24 01:45:00,
2013-05-23 21:02:00,64.9,58.0,30.05,NW,307,1.0,8.0,77,0.00,,,0.00,weatherlink.com 1.10,2013-05-24 02:02:00,
2013-05-23 21:18:00,64.7,58.0,30.05,West,276,3.0,6.0,78,0.00,,,0.00,weatherlink.com 1.10,2013-05-24 02:18:00,
2013-05-23 21:34:00,64.4,58.0,30.06,WNW,296,2.0,7.0,79,0.00,,,0.00,weatherlink.com 1.10,2013-05-24 02:34:00,
2013-05-23 21:51:00,61.4,58.0,30.08,North,350,6.0,9.0,90,0.00,,,0.00,weatherlink.com 1.10,2013-05-24 02:51:00,
2013-05-23 22:07:00,60.2,58.0,30.08,NNE,32,2.0,5.0,92,0.00,,,0.00,weatherlink.com 1.10,2013-05-24 03:07:00,
2013-05-23 22:23:00,58.7,56.0,30.09,NW,309,5.0,15.0,91,0.00,,,0.00,weatherlink.com 1.10,2013-05-24 03:23:00,
2013-05-23 22:39:00,58.0,55.0,30.10,NNW,334,1.0,9.0,91,0.00,,,0.00,weatherlink.com 1.10,2013-05-24 03:39:00,
2013-05-23 22:55:00,57.7,54.0,30.10,NNE,32,3.0,5.0,89,0.00,,,0.00,weatherlink.com 1.10,2013-05-24 03:55:00,
2013-05-23 23:11:00,57.0,53.0,30.11,NW,309,1.0,10.0,87,0.00,,,0.00,weatherlink.com 1.10,2013-05-24 04:11:00,
2013-05-23 23:27:00,56.6,52.0,30.12,NE,50,3.0,9.0,86,0.00,,,0.00,weatherlink.com 1.10,2013-05-24 04:27:00,
2013-05-23 23:44:00,56.4,52.0,30.12,North,5,4.0,11.0,85,0.00,,,0.00,weatherlink.com 1.10,2013-05-24 04:44:00,